createdAt,value
2018-03-04T00:01:46.736Z,-5.94
2018-03-04T00:04:14.755Z,-5.98
2018-03-04T00:06:42.743Z,-5.97
2018-03-04T00:09:10.750Z,-5.97
2018-03-04T00:11:38.815Z,-5.92
2018-03-04T00:14:06.823Z,-6.00
2018-03-04T00:16:34.823Z,-6.11
2018-03-04T00:19:02.890Z,-6.12
2018-03-04T00:21:30.860Z,-6.04
2018-03-04T00:23:58.871Z,-5.98
2018-03-04T00:26:26.873Z,-6.13
2018-03-04T00:28:54.877Z,-6.07
2018-03-04T00:31:22.910Z,-6.07
2018-03-04T00:33:51.763Z,-6.19
2018-03-04T00:36:19.979Z,-6.23
2018-03-04T00:38:48.001Z,-6.19
2018-03-04T00:41:16.145Z,-6.13
2018-03-04T00:43:44.125Z,-6.24
2018-03-04T00:46:12.134Z,-6.42
2018-03-04T00:48:40.124Z,-6.41
2018-03-04T00:51:08.141Z,-6.33
2018-03-04T00:53:36.138Z,-6.42
2018-03-04T00:56:04.173Z,-6.41
2018-03-04T00:58:32.166Z,-6.32
2018-03-04T01:01:00.220Z,-6.47
2018-03-04T01:03:28.248Z,-6.45
2018-03-04T01:05:56.332Z,-6.41
2018-03-04T01:08:24.375Z,-6.56
2018-03-04T01:10:52.405Z,-6.63
2018-03-04T01:13:20.398Z,-6.56
2018-03-04T01:15:48.418Z,-6.42
2018-03-04T01:18:16.453Z,-6.55
2018-03-04T01:20:44.454Z,-6.59
2018-03-04T01:23:12.499Z,-6.55
2018-03-04T01:25:40.526Z,-6.55
2018-03-04T01:28:08.598Z,-6.61
2018-03-04T01:30:36.726Z,-6.50
2018-03-04T01:33:04.746Z,-6.70
2018-03-04T01:35:32.823Z,-6.53
2018-03-04T01:38:00.881Z,-6.65
2018-03-04T01:40:28.922Z,-6.64
2018-03-04T01:42:56.995Z,-6.57
2018-03-04T01:45:25.015Z,-6.71
2018-03-04T01:47:53.036Z,-6.71
2018-03-04T01:50:21.100Z,-6.75
2018-03-04T01:52:49.130Z,-6.59
2018-03-04T01:55:17.159Z,-6.74
2018-03-04T01:57:45.220Z,-6.74
2018-03-04T02:00:13.209Z,-6.79
2018-03-04T02:02:41.226Z,-6.68
2018-03-04T02:05:09.250Z,-6.72
2018-03-04T02:07:37.313Z,-6.73
2018-03-04T02:10:05.324Z,-6.82
2018-03-04T02:12:33.364Z,-6.76
2018-03-04T02:15:01.393Z,-6.89
2018-03-04T02:17:29.405Z,-6.79
2018-03-04T02:19:57.433Z,-6.85
2018-03-04T02:22:25.437Z,-6.83
2018-03-04T02:24:53.455Z,-6.93
2018-03-04T02:27:21.478Z,-6.91
2018-03-04T02:29:49.470Z,-6.87
2018-03-04T02:32:17.532Z,-6.81
2018-03-04T02:34:45.627Z,-6.97
2018-03-04T02:37:13.656Z,-7.00
2018-03-04T02:39:41.698Z,-6.97
2018-03-04T02:42:09.735Z,-7.01
2018-03-04T02:44:37.981Z,-7.17
2018-03-04T02:47:06.037Z,-7.05
2018-03-04T02:49:34.053Z,-7.26
2018-03-04T02:52:02.086Z,-7.35
2018-03-04T02:54:30.153Z,-7.15
2018-03-04T02:56:58.169Z,-7.29
2018-03-04T02:59:26.203Z,-7.22
2018-03-04T03:01:54.198Z,-7.25
2018-03-04T03:04:22.237Z,-7.39
2018-03-04T03:06:50.234Z,-7.38
2018-03-04T03:09:18.217Z,-7.25
2018-03-04T03:11:46.249Z,-7.32
2018-03-04T03:14:14.247Z,-7.55
2018-03-04T03:16:42.335Z,-7.63
2018-03-04T03:19:10.362Z,-7.54
2018-03-04T03:21:38.378Z,-7.51
2018-03-04T03:24:06.390Z,-7.64
2018-03-04T03:26:34.597Z,-7.53
2018-03-04T03:29:02.650Z,-7.59
2018-03-04T03:31:30.651Z,-7.65
2018-03-04T03:33:58.689Z,-7.62
2018-03-04T03:36:26.691Z,-7.63
2018-03-04T03:38:54.722Z,-7.60
2018-03-04T03:41:22.731Z,-7.50
2018-03-04T03:43:50.743Z,-7.53
2018-03-04T03:46:18.764Z,-7.53
2018-03-04T03:48:46.762Z,-7.50
2018-03-04T03:51:14.785Z,-7.63
2018-03-04T03:53:42.779Z,-7.66
2018-03-04T03:56:10.817Z,-7.57
2018-03-04T03:58:38.806Z,-7.49
2018-03-04T04:01:06.790Z,-7.62
2018-03-04T04:03:34.861Z,-7.72
2018-03-04T04:06:02.906Z,-7.71
2018-03-04T04:08:30.948Z,-7.71
2018-03-04T04:10:58.980Z,-7.71
2018-03-04T04:13:27.055Z,-7.59
2018-03-04T04:15:55.079Z,-7.75
2018-03-04T04:18:23.119Z,-7.72
2018-03-04T04:20:51.131Z,-7.79
2018-03-04T04:23:19.137Z,-7.67
2018-03-04T04:25:47.203Z,-7.74
2018-03-04T04:28:15.227Z,-7.70
2018-03-04T04:30:43.250Z,-7.71
2018-03-04T04:33:11.291Z,-7.76
2018-03-04T04:35:39.291Z,-7.81
2018-03-04T04:38:07.324Z,-7.80
2018-03-04T04:40:35.266Z,-7.79
2018-03-04T04:43:03.214Z,-7.69
2018-03-04T04:45:31.166Z,-7.89
2018-03-04T04:47:59.152Z,-7.83
2018-03-04T04:50:27.073Z,-7.87
2018-03-04T04:52:55.011Z,-7.83
2018-03-04T04:55:22.938Z,-7.91
2018-03-04T04:57:50.914Z,-8.00
2018-03-04T05:00:18.842Z,-8.00
2018-03-04T05:02:46.765Z,-7.92
2018-03-04T05:05:14.761Z,-7.97
2018-03-04T05:07:42.705Z,-7.93
2018-03-04T05:10:10.646Z,-7.98
2018-03-04T05:12:38.580Z,-8.06
2018-03-04T05:15:06.530Z,-8.06
2018-03-04T05:17:34.444Z,-8.01
2018-03-04T05:20:02.422Z,-8.06
2018-03-04T05:22:30.355Z,-8.20
2018-03-04T05:24:58.286Z,-8.12
2018-03-04T05:27:26.206Z,-7.94
2018-03-04T05:29:54.167Z,-7.97
2018-03-04T05:32:22.097Z,-8.03
2018-03-04T05:34:50.880Z,-8.11
2018-03-04T05:37:18.827Z,-8.00
2018-03-04T05:39:46.766Z,-7.99
2018-03-04T05:42:14.739Z,-8.08
2018-03-04T05:44:42.682Z,-8.16
2018-03-04T05:47:10.629Z,-8.18
2018-03-04T05:49:38.589Z,-8.25
2018-03-04T05:52:06.510Z,-8.20
2018-03-04T05:54:34.418Z,-8.25
2018-03-04T05:57:02.373Z,-8.30
2018-03-04T05:59:30.293Z,-8.30
2018-03-04T06:01:58.239Z,-8.30
2018-03-04T06:04:26.179Z,-8.28
2018-03-04T06:06:54.090Z,-8.34
2018-03-04T06:09:22.059Z,-8.30
2018-03-04T06:11:49.992Z,-8.27
2018-03-04T06:14:17.903Z,-8.36
2018-03-04T06:16:45.829Z,-8.20
2018-03-04T06:19:13.757Z,-8.21
2018-03-04T06:21:41.706Z,-8.12
2018-03-04T06:24:09.632Z,-8.05
2018-03-04T06:26:37.574Z,-8.05
2018-03-04T06:29:05.678Z,-8.11
2018-03-04T06:31:33.604Z,-8.07
2018-03-04T06:34:01.556Z,-8.11
2018-03-04T06:36:29.488Z,-8.06
2018-03-04T06:38:57.428Z,-8.03
2018-03-04T06:41:25.364Z,-8.09
2018-03-04T06:43:53.289Z,-8.10
2018-03-04T06:46:21.218Z,-8.01
2018-03-04T06:48:49.148Z,-7.93
2018-03-04T06:51:17.133Z,-7.89
2018-03-04T06:53:45.810Z,-7.85
2018-03-04T06:56:13.732Z,-7.83
2018-03-04T06:58:41.678Z,-7.89
2018-03-04T07:01:09.630Z,-7.75
2018-03-04T07:03:37.578Z,-7.60
2018-03-04T07:06:05.526Z,-7.60
2018-03-04T07:08:33.473Z,-7.52
2018-03-04T07:11:01.400Z,-7.46
2018-03-04T07:13:29.355Z,-7.40
2018-03-04T07:15:57.265Z,-7.25
2018-03-04T07:18:25.201Z,-7.17
2018-03-04T07:20:53.133Z,-7.02
2018-03-04T07:23:21.091Z,-6.62
2018-03-04T07:25:49.103Z,-6.26
2018-03-04T07:28:17.080Z,-5.83
2018-03-04T07:30:45.009Z,-5.40
2018-03-04T07:33:12.918Z,-5.00
2018-03-04T07:35:40.946Z,-4.84
2018-03-04T07:38:09.018Z,-4.86
2018-03-04T07:40:36.998Z,-5.11
2018-03-04T07:43:04.896Z,-5.22
2018-03-04T07:45:32.845Z,-5.41
2018-03-04T07:48:00.801Z,-5.54
2018-03-04T07:50:28.820Z,-5.52
2018-03-04T07:52:56.816Z,-5.45
2018-03-04T07:55:24.748Z,-5.42
2018-03-04T07:57:53.234Z,-5.27
2018-03-04T08:00:21.201Z,-5.30
2018-03-04T08:02:49.174Z,-5.33
2018-03-04T08:05:19.707Z,-5.59
2018-03-04T08:08:24.630Z,-5.63
2018-03-04T08:13:56.086Z,-5.58
2018-03-04T08:16:43.574Z,-5.75
2018-03-04T08:19:18.489Z,-5.65
2018-03-04T08:21:46.432Z,-5.62
2018-03-04T08:24:14.397Z,-5.54
2018-03-04T08:26:54.315Z,-5.73
2018-03-04T08:29:22.248Z,-5.69
2018-03-04T08:31:50.188Z,-5.60
2018-03-04T08:34:18.140Z,-5.48
2018-03-04T08:36:46.156Z,-5.24
2018-03-04T08:39:14.082Z,-4.97
2018-03-04T08:41:42.058Z,-4.86
2018-03-04T08:44:10.104Z,-4.63
2018-03-04T08:46:38.155Z,-3.95
2018-03-04T08:49:06.146Z,-3.62
2018-03-04T08:51:34.074Z,-3.76
2018-03-04T08:54:01.985Z,-3.61
2018-03-04T08:56:30.018Z,-3.54
2018-03-04T08:58:57.938Z,-3.53
2018-03-04T09:01:25.931Z,-3.16
2018-03-04T09:03:53.883Z,-2.66
2018-03-04T09:06:21.831Z,-2.10
2018-03-04T09:08:49.814Z,-1.97
2018-03-04T09:11:17.744Z,-1.43
2018-03-04T09:13:46.654Z,-0.84
2018-03-04T09:16:14.627Z,-0.67
2018-03-04T09:18:42.556Z,-0.26
2018-03-04T09:21:10.497Z,0.05
2018-03-04T09:23:38.451Z,-0.14
2018-03-04T09:26:06.434Z,-0.97
2018-03-04T09:28:34.398Z,-1.18
2018-03-04T09:31:02.353Z,-1.41
2018-03-04T09:33:30.293Z,-1.55
2018-03-04T09:35:58.232Z,-2.10
2018-03-04T09:38:26.213Z,-2.17
2018-03-04T09:40:54.385Z,-2.84
2018-03-04T09:43:22.304Z,-2.97
2018-03-04T09:45:50.254Z,-2.88
2018-03-04T09:48:18.183Z,-2.78
2018-03-04T09:50:46.109Z,-3.08
2018-03-04T09:53:14.103Z,-3.13
2018-03-04T09:55:42.047Z,-3.42
2018-03-04T09:58:09.966Z,-3.46
2018-03-04T10:00:37.919Z,-3.53
2018-03-04T10:03:05.852Z,-3.62
2018-03-04T10:05:33.780Z,-3.68
2018-03-04T10:08:01.748Z,-3.19
2018-03-04T10:10:29.656Z,-3.37
2018-03-04T10:12:57.581Z,-3.34
2018-03-04T10:15:25.524Z,-3.58
2018-03-04T10:17:53.468Z,-3.56
2018-03-04T10:20:21.403Z,-3.66
2018-03-04T10:22:49.349Z,-3.42
2018-03-04T10:25:17.315Z,-3.17
2018-03-04T10:27:45.264Z,-3.13
2018-03-04T10:30:13.215Z,-3.07
2018-03-04T10:32:41.141Z,-3.02
2018-03-04T10:35:09.092Z,-2.93
2018-03-04T10:37:37.021Z,-2.65
2018-03-04T10:40:04.986Z,-2.53
2018-03-04T10:42:32.999Z,-2.20
2018-03-04T10:45:00.912Z,-1.77
2018-03-04T10:47:28.868Z,-1.95
2018-03-04T10:49:56.805Z,-1.80
2018-03-04T10:52:24.797Z,-1.64
2018-03-04T10:54:52.695Z,-1.88
2018-03-04T10:57:20.624Z,-1.80
2018-03-04T10:59:48.544Z,-1.85
2018-03-04T11:02:17.435Z,-1.91
2018-03-04T11:04:45.366Z,-1.89
2018-03-04T11:07:14.232Z,-1.74
2018-03-04T11:09:42.221Z,-1.56
2018-03-04T11:12:10.126Z,-1.78
2018-03-04T11:14:38.095Z,-1.62
2018-03-04T11:17:06.080Z,-1.30
2018-03-04T11:19:34.053Z,-1.06
2018-03-04T11:22:02.000Z,-0.79
2018-03-04T11:24:29.934Z,-0.36
2018-03-04T11:26:57.908Z,-0.06
2018-03-04T11:29:25.912Z,0.39
2018-03-04T11:31:53.837Z,0.91
2018-03-04T11:34:21.762Z,1.46
2018-03-04T11:36:49.686Z,2.28
2018-03-04T11:39:17.728Z,2.60
2018-03-04T11:41:45.615Z,2.16
2018-03-04T11:44:13.552Z,2.60
2018-03-04T11:46:41.494Z,2.36
2018-03-04T11:49:09.406Z,2.96
2018-03-04T11:51:37.355Z,3.35
2018-03-04T11:54:05.261Z,3.40
2018-03-04T11:56:33.258Z,3.70
2018-03-04T11:59:01.141Z,3.79
2018-03-04T12:01:29.062Z,3.49
2018-03-04T12:03:57.033Z,3.36
2018-03-04T12:06:24.958Z,3.19
2018-03-04T12:08:52.912Z,3.40
2018-03-04T12:11:20.822Z,3.40
2018-03-04T12:13:48.791Z,3.70
2018-03-04T12:16:16.714Z,3.40
2018-03-04T12:18:44.675Z,3.29
2018-03-04T12:21:12.646Z,3.29
2018-03-04T12:23:40.588Z,3.34
2018-03-04T12:26:08.519Z,3.69
2018-03-04T12:28:36.609Z,3.68
2018-03-04T12:31:04.627Z,3.26
2018-03-04T12:33:32.565Z,3.50
2018-03-04T12:36:00.543Z,3.48
2018-03-04T12:38:28.509Z,3.08
2018-03-04T12:40:56.513Z,2.27
2018-03-04T12:43:24.607Z,2.49
2018-03-04T12:45:52.551Z,2.60
2018-03-04T12:48:20.526Z,2.69
2018-03-04T12:50:48.491Z,2.53
2018-03-04T12:53:16.511Z,2.83
2018-03-04T12:55:44.502Z,2.89
2018-03-04T12:58:12.449Z,3.15
2018-03-04T13:00:40.655Z,2.96
2018-03-04T13:03:08.591Z,3.15
2018-03-04T13:05:36.528Z,2.86
2018-03-04T13:08:04.477Z,3.01
2018-03-04T13:10:33.325Z,3.38
2018-03-04T13:13:01.352Z,3.48
2018-03-04T13:15:29.248Z,3.29
2018-03-04T13:17:57.175Z,2.89
2018-03-04T13:20:25.206Z,2.27
2018-03-04T13:22:53.137Z,2.29
2018-03-04T13:25:21.085Z,2.38
2018-03-04T13:27:49.259Z,2.47
2018-03-04T13:30:17.214Z,2.23
2018-03-04T13:32:45.142Z,1.70
2018-03-04T13:35:13.093Z,1.54
2018-03-04T13:37:41.017Z,1.42
2018-03-04T13:40:08.950Z,1.07
2018-03-04T13:42:36.885Z,0.87
2018-03-04T13:45:04.806Z,0.49
2018-03-04T13:47:32.764Z,0.34
2018-03-04T13:50:00.722Z,0.25
2018-03-04T13:52:28.640Z,0.29
2018-03-04T13:54:56.660Z,0.23
2018-03-04T13:57:24.668Z,0.03
2018-03-04T13:59:52.627Z,-0.17
2018-03-04T14:02:20.572Z,-0.09
2018-03-04T14:04:48.515Z,-0.25
2018-03-04T14:07:16.483Z,-0.09
2018-03-04T14:09:44.439Z,-0.00
2018-03-04T14:12:12.369Z,0.08
2018-03-04T14:14:40.297Z,0.31
2018-03-04T14:17:08.281Z,0.31
2018-03-04T14:19:36.233Z,0.24
2018-03-04T14:22:04.159Z,0.20
2018-03-04T14:24:32.114Z,0.20
2018-03-04T14:27:00.043Z,0.30
2018-03-04T14:29:28.003Z,0.54
2018-03-04T14:31:55.913Z,0.46
2018-03-04T14:34:23.856Z,0.52
2018-03-04T14:36:51.810Z,0.52
2018-03-04T14:39:19.741Z,0.68
2018-03-04T14:41:47.783Z,0.43
2018-03-04T14:44:15.675Z,0.40
2018-03-04T14:46:43.624Z,0.32
2018-03-04T14:49:11.560Z,0.23
2018-03-04T14:51:39.536Z,0.09
2018-03-04T14:54:07.475Z,0.10
2018-03-04T14:56:35.503Z,-0.02
2018-03-04T14:59:03.493Z,-0.00
2018-03-04T15:01:31.442Z,-0.00
2018-03-04T15:03:59.400Z,0.03
2018-03-04T15:06:27.322Z,0.08
2018-03-04T15:08:55.271Z,0.10
2018-03-04T15:11:23.176Z,0.18
2018-03-04T15:13:51.169Z,0.15
2018-03-04T15:16:19.103Z,0.09
2018-03-04T15:18:47.067Z,0.04
2018-03-04T15:21:15.012Z,-0.14
2018-03-04T15:23:42.974Z,-0.00
2018-03-04T15:26:11.066Z,-0.03
2018-03-04T15:28:39.004Z,0.07
2018-03-04T15:31:06.999Z,0.10
2018-03-04T15:33:34.904Z,-0.12
2018-03-04T15:36:02.872Z,-0.10
2018-03-04T15:38:30.857Z,-0.02
2018-03-04T15:40:58.802Z,-0.11
2018-03-04T15:43:26.752Z,-0.12
2018-03-04T15:45:54.692Z,-0.13
2018-03-04T15:48:22.878Z,-0.09
2018-03-04T15:50:50.846Z,-0.21
2018-03-04T15:53:18.777Z,-0.29
2018-03-04T15:55:47.063Z,-0.23
2018-03-04T15:58:14.987Z,-0.25
2018-03-04T16:00:42.943Z,-0.37
2018-03-04T16:03:10.999Z,-0.38
2018-03-04T16:05:38.942Z,-0.32
2018-03-04T16:08:06.896Z,-0.34
2018-03-04T16:10:34.848Z,-0.29
2018-03-04T16:13:02.836Z,-0.35
2018-03-04T16:15:30.819Z,-0.44
2018-03-04T16:17:58.748Z,-0.36
2018-03-04T16:20:26.821Z,-0.39
2018-03-04T16:22:54.798Z,-0.43
2018-03-04T16:25:22.770Z,-0.53
2018-03-04T16:27:50.701Z,-0.45
2018-03-04T16:30:18.653Z,-0.46
2018-03-04T16:32:46.577Z,-0.54
2018-03-04T16:35:14.589Z,-0.54
2018-03-04T16:37:42.538Z,-0.61
2018-03-04T16:40:10.478Z,-0.56
2018-03-04T16:42:38.396Z,-0.55
2018-03-04T16:45:06.323Z,-0.61
2018-03-04T16:47:34.258Z,-0.67
2018-03-04T16:50:02.230Z,-0.86
2018-03-04T16:52:30.166Z,-0.86
2018-03-04T16:54:58.120Z,-0.72
2018-03-04T16:57:26.065Z,-0.77
2018-03-04T16:59:54.002Z,-0.86
2018-03-04T17:02:21.952Z,-0.93
2018-03-04T17:04:49.950Z,-0.91
2018-03-04T17:07:17.905Z,-0.88
2018-03-04T17:09:45.848Z,-0.95
2018-03-04T17:12:13.776Z,-0.95
2018-03-04T17:14:41.720Z,-0.94
2018-03-04T17:17:09.657Z,-1.10
2018-03-04T17:19:37.603Z,-1.04
2018-03-04T17:22:05.553Z,-1.09
2018-03-04T17:24:33.486Z,-1.09
2018-03-04T17:27:01.444Z,-1.03
2018-03-04T17:29:29.360Z,-1.01
2018-03-04T17:31:57.351Z,-1.01
2018-03-04T17:34:25.361Z,-1.05
2018-03-04T17:36:53.537Z,-1.17
2018-03-04T17:39:21.484Z,-1.26
2018-03-04T17:41:49.433Z,-1.23
2018-03-04T17:44:17.409Z,-1.19
2018-03-04T17:46:45.325Z,-1.24
2018-03-04T17:49:13.284Z,-1.08
2018-03-04T17:51:41.283Z,-1.13
2018-03-04T17:54:09.223Z,-1.15
2018-03-04T17:56:38.784Z,-1.24
2018-03-04T17:59:07.802Z,-1.23
2018-03-04T18:01:35.746Z,-1.19
2018-03-04T18:04:03.764Z,-1.24
2018-03-04T18:06:31.876Z,-1.16
2018-03-04T18:08:59.949Z,-1.13
2018-03-04T18:11:27.878Z,-1.12
2018-03-04T18:13:55.850Z,-1.12
2018-03-04T18:16:23.793Z,-1.17
2018-03-04T18:18:51.730Z,-1.19
2018-03-04T18:21:19.710Z,-1.26
2018-03-04T18:23:47.644Z,-1.19
2018-03-04T18:26:15.592Z,-1.19
2018-03-04T18:28:43.621Z,-1.26
2018-03-04T18:31:11.608Z,-1.20
2018-03-04T18:33:39.512Z,-1.27
2018-03-04T18:36:07.458Z,-1.28
2018-03-04T18:38:35.390Z,-1.24
2018-03-04T18:41:03.325Z,-1.14
2018-03-04T18:43:31.284Z,-1.08
2018-03-04T18:45:59.261Z,-1.27
2018-03-04T18:48:27.201Z,-1.20
2018-03-04T18:50:55.125Z,-1.24
2018-03-04T18:53:23.054Z,-1.27
2018-03-04T18:55:51.069Z,-1.25
2018-03-04T18:58:18.997Z,-1.32
2018-03-04T19:00:46.973Z,-1.15
2018-03-04T19:03:15.048Z,-1.30
2018-03-04T19:05:43.000Z,-1.25
2018-03-04T19:08:11.064Z,-1.28
2018-03-04T19:10:38.997Z,-1.23
2018-03-04T19:13:06.958Z,-1.24
2018-03-04T19:15:35.243Z,-1.18
2018-03-04T19:18:03.257Z,-1.18
2018-03-04T19:20:31.179Z,-1.33
2018-03-04T19:22:59.098Z,-1.24
2018-03-04T19:25:27.030Z,-1.18
2018-03-04T19:27:54.956Z,-1.14
2018-03-04T19:30:22.926Z,-1.25
2018-03-04T19:32:50.868Z,-1.30
2018-03-04T19:35:18.866Z,-1.29
2018-03-04T19:37:46.857Z,-1.25
2018-03-04T19:40:14.793Z,-1.30
2018-03-04T19:42:42.841Z,-1.32
2018-03-04T19:45:10.788Z,-1.27
2018-03-04T19:47:38.769Z,-1.27
2018-03-04T19:50:06.679Z,-1.36
2018-03-04T19:52:34.648Z,-1.36
2018-03-04T19:55:02.679Z,-1.43
2018-03-04T19:57:30.704Z,-1.47
2018-03-04T19:59:58.601Z,-1.50
2018-03-04T20:02:26.528Z,-1.40
2018-03-04T20:04:54.466Z,-1.31
2018-03-04T20:07:22.385Z,-1.34
2018-03-04T20:09:50.358Z,-1.40
2018-03-04T20:12:18.282Z,-1.50
2018-03-04T20:14:46.218Z,-1.54
2018-03-04T20:17:14.169Z,-1.52
2018-03-04T20:19:42.109Z,-1.49
2018-03-04T20:22:10.107Z,-1.45
2018-03-04T20:24:38.138Z,-1.50
2018-03-04T20:27:06.106Z,-1.44
2018-03-04T20:29:34.085Z,-1.57
2018-03-04T20:32:02.022Z,-1.59
2018-03-04T20:34:30.008Z,-1.56
2018-03-04T20:36:58.090Z,-1.58
2018-03-04T20:39:26.047Z,-1.61
2018-03-04T20:41:53.966Z,-1.65
2018-03-04T20:44:21.939Z,-1.60
2018-03-04T20:46:50.070Z,-1.61
2018-03-04T20:49:18.670Z,-1.65
2018-03-04T20:51:46.611Z,-1.62
2018-03-04T20:54:14.527Z,-1.54
2018-03-04T20:56:42.494Z,-1.58
2018-03-04T20:59:10.464Z,-1.53
2018-03-04T21:01:38.401Z,-1.63
2018-03-04T21:04:06.360Z,-1.64
2018-03-04T21:06:34.329Z,-1.50
2018-03-04T21:09:02.239Z,-1.54
2018-03-04T21:11:30.185Z,-1.46
2018-03-04T21:13:58.188Z,-1.42
2018-03-04T21:16:26.111Z,-1.47
2018-03-04T21:18:54.126Z,-1.54
2018-03-04T21:21:22.057Z,-1.45
2018-03-04T21:23:50.019Z,-1.43
2018-03-04T21:26:17.948Z,-1.43
2018-03-04T21:28:45.965Z,-1.47
2018-03-04T21:31:13.897Z,-1.54
2018-03-04T21:33:41.858Z,-1.45
2018-03-04T21:36:09.793Z,-1.50
2018-03-04T21:38:37.700Z,-1.45
2018-03-04T21:41:05.789Z,-1.48
2018-03-04T21:43:33.781Z,-1.43
2018-03-04T21:46:01.746Z,-1.50
2018-03-04T21:48:29.701Z,-1.46
2018-03-04T21:50:57.720Z,-1.47
2018-03-04T21:53:25.714Z,-1.47
2018-03-04T21:55:53.622Z,-1.42
2018-03-04T21:58:21.548Z,-1.45
2018-03-04T22:00:49.461Z,-1.48
2018-03-04T22:03:17.524Z,-1.56
2018-03-04T22:05:45.430Z,-1.67
2018-03-04T22:08:13.364Z,-1.60
2018-03-04T22:10:41.305Z,-1.68
2018-03-04T22:13:09.218Z,-1.73
2018-03-04T22:15:37.165Z,-1.76
2018-03-04T22:18:05.154Z,-1.79
2018-03-04T22:20:33.112Z,-1.89
2018-03-04T22:23:01.579Z,-1.87
2018-03-04T22:25:29.944Z,-1.86
2018-03-04T22:27:58.504Z,-2.04
2018-03-04T22:30:26.520Z,-2.12
2018-03-04T22:32:54.490Z,-2.09
2018-03-04T22:35:22.406Z,-2.13
2018-03-04T22:37:50.324Z,-2.10
2018-03-04T22:40:18.272Z,-2.06
2018-03-04T22:42:46.261Z,-2.05
2018-03-04T22:45:14.189Z,-2.02
2018-03-04T22:47:42.116Z,-2.05
2018-03-04T22:50:10.080Z,-2.03
2018-03-04T22:52:38.051Z,-1.97
2018-03-04T22:55:06.010Z,-2.10
2018-03-04T22:57:33.950Z,-2.02
2018-03-04T23:00:01.886Z,-2.05
2018-03-04T23:02:29.823Z,-2.12
2018-03-04T23:04:58.509Z,-2.12
2018-03-04T23:07:26.441Z,-2.04
2018-03-04T23:09:54.381Z,-2.07
2018-03-04T23:12:22.313Z,-2.20
2018-03-04T23:14:50.216Z,-2.20
2018-03-04T23:17:18.150Z,-2.19
2018-03-04T23:19:46.119Z,-2.23
2018-03-04T23:22:14.077Z,-2.29
2018-03-04T23:24:41.990Z,-2.28
2018-03-04T23:27:10.864Z,-2.24
2018-03-04T23:29:38.814Z,-2.33
2018-03-04T23:32:06.775Z,-2.28
2018-03-04T23:34:34.696Z,-2.20
2018-03-04T23:37:02.623Z,-2.16
2018-03-04T23:39:30.687Z,-2.28
2018-03-04T23:41:58.665Z,-2.31
2018-03-04T23:44:26.640Z,-2.38
2018-03-04T23:46:54.590Z,-2.13
2018-03-04T23:49:22.516Z,-2.28
2018-03-04T23:51:50.448Z,-2.21
2018-03-04T23:54:18.485Z,-2.32
2018-03-04T23:56:46.410Z,-2.29
2018-03-04T23:59:14.386Z,-2.31
